Time;durP1;ratioP1;P1;durP2;ratioP2;P2;SDS_P1;SDS_P2;PMS_P1;PMS_P2;Temp;Humidity;BMP_temperature;BMP_pressure;BME280_temperature;BME280_humidity;BME280_pressure;Samples;Min_cycle;Max_cycle;Signal;HPM_P1;HPM_P2
2023/03/04 00:00:56;;;;;;;16.15;6.47;;;;;;;-144.47;96.24;53015.00;5073910;28;20036;-68
2023/03/04 00:03:22;;;;;;;18.27;7.72;;;;;;;-144.47;96.50;53026.91;5069315;28;20092;-67
2023/03/04 00:05:47;;;;;;;13.95;6.53;;;;;;;-144.47;96.83;53038.81;5067277;28;20463;-68
2023/03/04 00:08:13;;;;;;;18.88;8.15;;;;;;;-144.47;96.74;53024.91;5072038;28;20063;-67
2023/03/04 00:10:38;;;;;;;18.80;8.50;;;;;;;-144.47;97.28;53030.88;5069428;28;20528;-68
2023/03/04 00:13:03;;;;;;;20.40;8.30;;;;;;;-144.47;97.28;53026.91;5069188;28;20561;-69
2023/03/04 00:15:29;;;;;;;17.52;7.75;;;;;;;-144.47;97.76;53042.78;5050717;28;20023;-68
2023/03/04 00:17:55;;;;;;;17.33;8.35;;;;;;;-144.47;98.01;53034.84;5067449;28;20508;-68
2023/03/04 00:20:20;;;;;;;14.77;7.88;;;;;;;-144.47;98.32;53056.69;5067253;28;20067;-67
2023/03/04 00:22:45;;;;;;;25.08;9.40;;;;;;;-144.47;98.28;53028.88;5058942;28;20020;-66
2023/03/04 00:25:11;;;;;;;15.60;7.78;;;;;;;-144.47;98.63;53050.75;5066407;28;20024;-67
2023/03/04 00:27:36;;;;;;;17.80;8.02;;;;;;;-144.47;98.75;53040.81;5065068;28;20056;-68
2023/03/04 00:30:02;;;;;;;18.73;8.98;;;;;;;-144.47;98.99;53030.88;5064433;28;20025;-66
2023/03/04 00:32:27;;;;;;;23.52;9.43;;;;;;;-144.47;99.71;53032.88;5066708;28;20393;-68
2023/03/04 00:34:53;;;;;;;19.73;8.90;;;;;;;-144.47;100.00;53054.72;5067025;28;20114;-65
2023/03/04 00:37:18;;;;;;;17.13;8.13;;;;;;;-144.47;100.00;53040.81;5066729;28;20021;-68
2023/03/04 00:39:43;;;;;;;24.10;9.38;;;;;;;-144.47;100.00;53036.84;5066815;28;20021;-67
2023/03/04 00:42:09;;;;;;;23.35;9.68;;;;;;;-144.47;100.00;53036.84;5066476;28;20059;-67
2023/03/04 00:44:34;;;;;;;26.17;9.32;;;;;;;-144.47;100.00;53070.59;5066667;28;20036;-68
2023/03/04 00:47:00;;;;;;;28.25;10.95;;;;;;;-144.47;100.00;53056.69;5046563;28;20205;-68
2023/03/04 00:49:25;;;;;;;22.83;9.48;;;;;;;-144.47;100.00;53038.81;5051916;28;20487;-67
2023/03/04 00:51:50;;;;;;;20.02;10.10;;;;;;;-144.47;100.00;53106.34;5037314;28;20589;-68
2023/03/04 00:54:16;;;;;;;22.48;9.23;;;;;;;-144.47;100.00;53074.56;5050721;28;20158;-68
2023/03/04 00:56:41;;;;;;;27.83;10.65;;;;;;;-144.47;100.00;53056.69;5068841;28;20027;-67
2023/03/04 00:59:06;;;;;;;23.50;9.18;;;;;;;-144.47;100.00;53054.72;5048940;28;20020;-68
2023/03/04 01:01:32;;;;;;;33.60;11.70;;;;;;;-144.47;100.00;53066.63;5069305;28;20113;-70
2023/03/04 01:03:57;;;;;;;25.70;10.18;;;;;;;-144.47;100.00;53070.59;5079383;28;20036;-68
2023/03/04 01:06:22;;;;;;;23.20;9.25;;;;;;;-144.47;100.00;53088.47;5069718;28;20029;-67
2023/03/04 01:08:48;;;;;;;23.13;9.38;;;;;;;-144.47;100.00;53082.53;5074929;28;20024;-67
2023/03/04 01:11:13;;;;;;;30.40;10.32;;;;;;;-144.47;100.00;53068.63;5069171;28;20516;-69
2023/03/04 01:13:39;;;;;;;21.25;8.57;;;;;;;-144.47;100.00;53066.63;5072289;28;20104;-69
2023/03/04 01:16:05;;;;;;;24.48;8.32;;;;;;;-144.47;100.00;53060.66;5069138;28;20425;-66
2023/03/04 01:18:31;;;;;;;17.90;9.18;;;;;;;-144.47;100.00;53060.66;5067099;28;20088;-67
2023/03/04 01:20:57;;;;;;;25.13;9.38;;;;;;;-144.47;100.00;53052.72;5069787;28;20025;-67
2023/03/04 01:23:22;;;;;;;28.35;9.65;;;;;;;-144.47;100.00;53044.78;5050688;28;20177;-68
2023/03/04 01:25:48;;;;;;;21.10;8.60;;;;;;;-144.47;100.00;53070.59;5044407;28;20144;-67
2023/03/04 01:28:13;;;;;;;18.45;8.13;;;;;;;-144.47;100.00;53046.75;5069420;28;20127;-68
2023/03/04 01:30:38;;;;;;;16.42;8.13;;;;;;;-144.47;100.00;53042.78;5069647;28;20565;-67
2023/03/04 01:33:04;;;;;;;18.17;8.43;;;;;;;-144.47;100.00;53074.56;5069867;28;20024;-68
2023/03/04 01:35:29;;;;;;;21.42;8.70;;;;;;;-144.47;100.00;53056.69;5069979;28;20162;-67
2023/03/04 01:37:55;;;;;;;20.63;7.90;;;;;;;-144.47;100.00;53046.75;5069366;28;20386;-69
2023/03/04 01:40:20;;;;;;;18.55;8.20;;;;;;;-144.47;100.00;53022.94;5069337;28;20463;-67
2023/03/04 01:42:46;;;;;;;18.52;8.35;;;;;;;-144.47;100.00;53022.94;5069313;28;20056;-67
2023/03/04 01:45:15;;;;;;;17.98;8.43;;;;;;;-144.47;100.00;53052.72;5069371;28;20424;-68
2023/03/04 01:47:47;;;;;;;19.23;7.70;;;;;;;-144.47;99.90;53046.75;5069475;28;20098;-67
2023/03/04 01:50:27;;;;;;;19.50;9.35;;;;;;;-144.47;99.80;53038.81;5069402;28;20180;-67
2023/03/04 01:52:52;;;;;;;23.77;9.15;;;;;;;-144.47;99.75;53054.72;5051252;28;20028;-68
2023/03/04 01:55:20;;;;;;;23.85;7.90;;;;;;;-144.47;99.78;53066.63;5068941;28;20025;-68
2023/03/04 01:57:47;;;;;;;26.85;10.40;;;;;;;-144.47;99.97;53062.66;5062542;28;20029;-69
2023/03/04 02:00:33;;;;;;;19.60;7.30;;;;;;;-144.47;99.82;53064.66;5060544;28;20425;-67
2023/03/04 02:03:03;;;;;;;18.50;8.85;;;;;;;-144.47;99.97;53046.75;5083464;28;20174;-68
2023/03/04 02:05:29;;;;;;;18.95;8.27;;;;;;;-144.47;100.00;53050.75;5068934;28;20048;-68
2023/03/04 02:07:57;;;;;;;17.10;8.65;;;;;;;-144.47;100.00;53084.50;5071996;28;20402;-68
2023/03/04 02:10:23;;;;;;;20.75;8.35;;;;;;;-144.47;100.00;53034.84;5052397;28;20572;-68
2023/03/04 02:12:49;;;;;;;29.92;9.48;;;;;;;-144.47;99.99;53044.78;5077292;28;20168;-68
2023/03/04 02:15:15;;;;;;;16.00;6.95;;;;;;;-144.47;99.91;53070.59;5068809;28;20078;-66
2023/03/04 02:17:41;;;;;;;22.42;8.13;;;;;;;-144.47;99.82;53082.53;5068412;28;20028;-67
2023/03/04 02:20:14;;;;;;;19.02;8.43;;;;;;;-144.47;99.47;53050.75;5068843;28;20020;-65
2023/03/04 02:22:50;;;;;;;16.77;8.55;;;;;;;-144.47;99.35;53050.75;5068822;28;20093;-68
2023/03/04 02:25:23;;;;;;;19.10;7.97;;;;;;;-144.47;99.42;53064.66;5068314;28;20028;-67
2023/03/04 02:27:48;;;;;;;20.48;8.50;;;;;;;-144.47;99.40;53072.59;5068488;28;20036;-66
2023/03/04 02:30:15;;;;;;;28.83;9.00;;;;;;;-144.47;99.01;53032.88;5068733;28;20058;-68
2023/03/04 02:32:41;;;;;;;21.52;9.10;;;;;;;-144.47;98.58;53062.66;5050667;28;20024;-66
2023/03/04 02:35:15;;;;;;;18.13;8.43;;;;;;;-144.47;98.72;53056.69;5068630;28;20082;-67
2023/03/04 02:37:41;;;;;;;19.08;8.07;;;;;;;-144.47;98.36;53054.72;5068276;28;20032;-68
2023/03/04 02:40:13;;;;;;;25.90;8.75;;;;;;;-144.47;98.09;53046.75;5050082;28;20548;-68
2023/03/04 02:42:38;;;;;;;23.48;9.25;;;;;;;-144.47;98.01;53044.78;5067327;28;20085;-66
2023/03/04 02:45:04;;;;;;;20.27;9.20;;;;;;;-144.47;97.68;53030.88;5068445;28;20028;-67
2023/03/04 02:47:29;;;;;;;22.70;8.68;;;;;;;-144.47;97.19;53016.97;5050239;28;20030;-68
2023/03/04 02:49:55;;;;;;;20.75;7.70;;;;;;;-144.47;96.92;53026.91;5068354;28;20335;-67
2023/03/04 02:52:22;;;;;;;23.60;9.27;;;;;;;-144.47;96.69;53086.50;5069021;28;20115;-68
2023/03/04 02:54:47;;;;;;;17.20;8.07;;;;;;;-144.47;96.26;53036.84;5068110;28;20431;-66
2023/03/04 02:57:14;;;;;;;18.67;8.25;;;;;;;-144.47;95.84;53036.84;5067937;28;20032;-67
2023/03/04 02:59:40;;;;;;;24.35;8.32;;;;;;;-144.47;95.82;53024.91;5068355;28;20093;-68
2023/03/04 03:02:07;;;;;;;25.90;9.27;;;;;;;-144.47;95.64;53024.91;5078672;28;20100;-67
2023/03/04 03:04:35;;;;;;;17.92;7.65;;;;;;;-144.47;95.57;53034.84;5073069;28;20473;-68
2023/03/04 03:07:00;;;;;;;22.33;8.73;;;;;;;-144.47;95.01;53044.78;5067730;28;20027;-68
2023/03/04 03:09:26;;;;;;;21.55;9.27;;;;;;;-144.47;94.85;53042.78;5072355;28;20021;-68
2023/03/04 03:11:51;;;;;;;20.15;8.77;;;;;;;-144.47;94.75;53022.94;5067755;28;20073;-66
2023/03/04 03:14:16;;;;;;;22.23;8.80;;;;;;;-144.47;94.56;53046.75;5075411;28;20024;-67
2023/03/04 03:16:42;;;;;;;25.10;9.68;;;;;;;-144.47;94.58;53064.66;5067349;28;20386;-66
2023/03/04 03:19:07;;;;;;;30.05;10.20;;;;;;;-144.47;94.81;53040.81;5067707;28;20032;-65
2023/03/04 03:21:32;;;;;;;17.23;8.10;;;;;;;-144.47;95.05;53034.84;5067733;28;20535;-66
2023/03/04 03:23:58;;;;;;;23.70;7.68;;;;;;;-144.47;94.72;53015.00;5069128;28;20039;-64
2023/03/04 03:26:23;;;;;;;23.98;10.10;;;;;;;-144.47;94.60;53052.72;5068126;28;20032;-66
2023/03/04 03:28:49;;;;;;;17.23;8.32;;;;;;;-144.47;94.38;53005.06;5068421;28;20025;-67
2023/03/04 03:31:14;;;;;;;19.50;7.65;;;;;;;-144.47;94.30;53056.69;5069861;28;20079;-68
2023/03/04 03:33:39;;;;;;;19.35;8.35;;;;;;;-144.47;94.40;53058.69;5069399;28;20248;-68
2023/03/04 03:36:06;;;;;;;20.63;8.75;;;;;;;-144.47;94.28;52995.13;5037927;28;20116;-68
2023/03/04 03:38:31;;;;;;;23.35;8.98;;;;;;;-144.47;94.18;53007.03;5067678;28;20028;-66
2023/03/04 03:40:57;;;;;;;18.50;8.20;;;;;;;-144.47;93.68;53018.97;5032990;28;20028;-66
2023/03/04 03:43:22;;;;;;;26.58;9.20;;;;;;;-144.47;93.67;53026.91;5067961;28;20054;-67
2023/03/04 03:45:48;;;;;;;25.10;8.77;;;;;;;-144.47;93.46;53009.03;5067343;28;20025;-66
2023/03/04 03:48:13;;;;;;;19.23;8.80;;;;;;;-144.47;93.64;53036.84;5067139;28;20038;-69
2023/03/04 03:50:39;;;;;;;27.70;8.75;;;;;;;-144.47;93.48;53011.00;5067242;28;20101;-67
2023/03/04 03:53:04;;;;;;;19.13;8.80;;;;;;;-144.47;93.61;53034.84;5067390;28;20016;-68
2023/03/04 03:55:30;;;;;;;23.10;8.57;;;;;;;-144.47;93.56;52999.09;5066528;28;20028;-67
2023/03/04 03:57:55;;;;;;;22.63;8.73;;;;;;;-144.47;93.41;53022.94;5067050;28;20446;-68
2023/03/04 04:00:21;;;;;;;25.60;8.52;;;;;;;-144.47;93.30;53015.00;5066912;28;20036;-67
2023/03/04 04:02:46;;;;;;;18.40;8.27;;;;;;;-144.47;93.28;53054.72;5083331;28;20088;-66
2023/03/04 04:05:12;;;;;;;22.88;8.88;;;;;;;-144.47;93.28;53011.00;5066454;28;20037;-67
2023/03/04 04:07:38;;;;;;;20.90;7.93;;;;;;;-144.47;93.33;53022.94;5068069;28;20024;-67
2023/03/04 04:10:04;;;;;;;18.70;7.22;;;;;;;-144.47;93.10;53011.00;5070599;28;20028;-68
2023/03/04 04:12:30;;;;;;;21.55;9.30;;;;;;;-144.47;93.09;53003.06;5073568;28;20024;-67
2023/03/04 04:14:55;;;;;;;21.15;7.35;;;;;;;-144.47;93.54;53018.97;5071116;28;20024;-66
2023/03/04 04:17:21;;;;;;;20.30;8.23;;;;;;;-144.47;93.47;53044.78;5065955;28;20043;-67
2023/03/04 04:19:46;;;;;;;24.80;9.15;;;;;;;-144.47;93.27;53032.88;5068505;28;20029;-65
2023/03/04 04:22:17;;;;;;;25.98;7.78;;;;;;;-144.47;93.41;53018.97;5067371;28;20032;-67
2023/03/04 04:24:43;;;;;;;28.50;8.15;;;;;;;-144.47;93.20;53032.88;5070713;28;20035;-68
2023/03/04 04:27:12;;;;;;;23.90;8.63;;;;;;;-144.47;93.29;53044.78;5070260;28;20054;-68
2023/03/04 04:29:38;;;;;;;21.70;8.88;;;;;;;-144.47;93.18;53032.88;5070878;28;20021;-66
2023/03/04 04:32:04;;;;;;;32.05;9.65;;;;;;;-144.47;93.01;53028.88;5070875;28;20134;-67
2023/03/04 04:34:29;;;;;;;19.70;8.10;;;;;;;-144.47;93.07;53022.94;5070886;28;20024;-65
2023/03/04 04:36:55;;;;;;;25.80;8.15;;;;;;;-144.47;93.01;53024.91;5070551;28;20021;-67
2023/03/04 04:39:21;;;;;;;28.50;8.02;;;;;;;-144.47;92.94;53044.78;5070412;28;20044;-65
2023/03/04 04:41:46;;;;;;;28.23;8.48;;;;;;;-144.47;92.84;53042.78;5052262;28;20418;-66
2023/03/04 04:44:12;;;;;;;18.90;7.68;;;;;;;-144.47;92.69;53020.94;5070110;28;20036;-67
2023/03/04 04:46:38;;;;;;;22.95;7.75;;;;;;;-144.47;92.79;53024.91;5069894;28;20750;-67
2023/03/04 04:49:05;;;;;;;28.02;8.02;;;;;;;-144.47;92.74;53032.88;5070578;28;20169;-68
2023/03/04 04:51:31;;;;;;;17.05;7.15;;;;;;;-144.47;92.78;52983.22;5070607;28;20490;-67
2023/03/04 04:53:58;;;;;;;22.70;8.07;;;;;;;-144.47;92.99;52999.09;5070197;28;20081;-65
2023/03/04 04:56:25;;;;;;;20.27;7.80;;;;;;;-144.47;92.80;53034.84;5069638;28;20116;-67
2023/03/04 04:58:53;;;;;;;16.83;7.63;;;;;;;-144.47;92.50;53034.84;5070113;28;20036;-67
2023/03/04 05:01:18;;;;;;;21.83;8.07;;;;;;;-144.47;92.46;53038.81;5074838;28;20099;-66
2023/03/04 05:03:44;;;;;;;21.50;8.55;;;;;;;-144.47;92.35;53034.84;5081864;28;20611;-67
2023/03/04 05:06:11;;;;;;;25.02;8.75;;;;;;;-144.47;92.21;53015.00;5070040;28;20036;-66
2023/03/04 05:08:37;;;;;;;27.50;9.02;;;;;;;-144.47;92.19;53044.78;5075481;28;20089;-66
2023/03/04 05:11:03;;;;;;;19.83;10.15;;;;;;;-144.47;92.12;53046.75;5051271;28;20048;-68
2023/03/04 05:13:28;;;;;;;27.75;10.25;;;;;;;-144.47;92.09;53030.88;5078078;28;20035;-67
2023/03/04 05:15:55;;;;;;;29.45;10.15;;;;;;;-144.47;91.77;53024.91;5069651;28;20021;-67
2023/03/04 05:18:23;;;;;;;15.55;7.32;;;;;;;-144.47;91.86;53011.00;5069418;28;20032;-66
2023/03/04 05:20:54;;;;;;;26.15;8.63;;;;;;;-144.47;91.88;53042.78;5079623;28;20040;-67
2023/03/04 05:23:20;;;;;;;31.58;9.18;;;;;;;-144.47;91.96;53050.75;5069768;28;20124;-68
2023/03/04 05:25:46;;;;;;;19.20;8.02;;;;;;;-144.47;91.65;53018.97;5069146;28;20024;-68
2023/03/04 05:28:11;;;;;;;21.08;8.88;;;;;;;-144.47;91.54;53016.97;5069395;28;20036;-68
2023/03/04 05:30:41;;;;;;;21.83;7.85;;;;;;;-144.47;91.51;52997.09;5069696;28;20055;-69
2023/03/04 05:33:07;;;;;;;20.98;6.82;;;;;;;-144.47;91.62;53030.88;5070180;28;20036;-69
2023/03/04 05:35:34;;;;;;;20.80;7.70;;;;;;;-144.47;91.95;53015.00;5068712;28;20107;-68
2023/03/04 05:38:00;;;;;;;26.45;8.38;;;;;;;-144.47;91.82;53030.88;5069549;28;20048;-67
2023/03/04 05:40:25;;;;;;;23.15;8.45;;;;;;;-144.47;91.62;53003.06;5069374;28;20048;-68
2023/03/04 05:42:50;;;;;;;18.60;6.80;;;;;;;-144.47;92.12;53016.97;5067878;28;20068;-66
2023/03/04 05:45:16;;;;;;;15.00;7.65;;;;;;;-144.47;91.87;53003.06;5069468;28;20020;-67
2023/03/04 05:47:41;;;;;;;24.52;8.60;;;;;;;-144.47;92.05;53034.84;5069455;28;20065;-67
2023/03/04 05:50:07;;;;;;;19.95;7.47;;;;;;;-144.47;92.34;53015.00;5069535;28;20020;-68
2023/03/04 05:52:33;;;;;;;22.55;8.77;;;;;;;-144.47;92.56;53013.00;5068663;28;20478;-68
2023/03/04 05:54:58;;;;;;;20.15;7.78;;;;;;;-144.47;92.48;53030.88;5069366;28;20048;-67
2023/03/04 05:57:23;;;;;;;22.60;9.43;;;;;;;-144.47;92.12;53038.81;5068363;28;20031;-69
2023/03/04 05:59:49;;;;;;;18.17;6.72;;;;;;;-144.47;92.06;53018.97;5069400;28;20110;-69
2023/03/04 06:02:14;;;;;;;23.27;8.30;;;;;;;-144.47;92.11;53050.75;5080736;28;20092;-67
2023/03/04 06:04:39;;;;;;;15.45;7.32;;;;;;;-144.47;92.24;53018.97;5073159;28;20044;-66
2023/03/04 06:07:05;;;;;;;18.42;7.57;;;;;;;-144.47;92.08;53034.84;5068635;28;20028;-67
2023/03/04 06:09:30;;;;;;;28.40;7.72;;;;;;;-144.47;92.04;53013.00;5067605;28;20437;-66
2023/03/04 06:11:55;;;;;;;25.92;8.40;;;;;;;-144.47;92.27;53018.97;5064967;28;20040;-66
2023/03/04 06:14:20;;;;;;;21.98;8.13;;;;;;;-144.47;92.19;52999.09;5066020;28;20028;-65
2023/03/04 06:16:46;;;;;;;19.60;6.38;;;;;;;-144.47;92.29;53038.81;5060829;28;20024;-66
2023/03/04 06:19:11;;;;;;;17.00;7.63;;;;;;;-144.47;92.53;53022.94;5060182;28;20126;-65
2023/03/04 06:21:37;;;;;;;20.98;8.85;;;;;;;-144.47;92.51;53015.00;5069833;28;20121;-66
2023/03/04 06:24:02;;;;;;;25.13;7.72;;;;;;;-144.47;92.37;53020.94;5064743;28;20028;-67
2023/03/04 06:26:27;;;;;;;17.33;6.97;;;;;;;-144.47;92.38;53016.97;5064922;28;20036;-67
2023/03/04 06:28:55;;;;;;;21.73;7.13;;;;;;;-144.47;92.35;53007.03;5065495;28;20099;-67
2023/03/04 06:31:21;;;;;;;26.77;7.90;;;;;;;-144.47;92.23;53009.03;5068431;28;20036;-67
2023/03/04 06:33:46;;;;;;;20.13;6.07;;;;;;;-144.47;92.17;53018.97;5072902;28;20036;-66
2023/03/04 06:36:12;;;;;;;16.33;7.60;;;;;;;-144.47;91.93;53011.00;5067702;28;20016;-65
2023/03/04 06:38:37;;;;;;;18.55;6.93;;;;;;;-144.47;92.00;53036.84;5067559;28;20039;-66
2023/03/04 06:41:07;;;;;;;22.90;7.75;;;;;;;-144.47;92.33;53026.91;5064091;28;20115;-66
2023/03/04 06:43:33;;;;;;;17.33;7.72;;;;;;;-144.47;92.02;53013.00;5068198;28;20036;-66
2023/03/04 06:45:58;;;;;;;21.65;6.97;;;;;;;-144.47;91.80;53032.88;5065937;28;20060;-67
2023/03/04 06:48:23;;;;;;;26.98;7.30;;;;;;;-144.47;91.39;53024.91;5066708;28;20040;-66
2023/03/04 06:50:49;;;;;;;13.45;5.70;;;;;;;-144.47;91.35;53018.97;5066871;28;20050;-65
2023/03/04 06:53:14;;;;;;;23.65;6.95;;;;;;;-144.47;91.62;53020.94;5065856;28;20036;-66
2023/03/04 06:55:39;;;;;;;15.15;6.20;;;;;;;-144.47;91.53;53030.88;5064572;28;20063;-64
2023/03/04 06:58:05;;;;;;;19.90;6.43;;;;;;;-144.47;91.37;53011.00;5063124;28;20175;-64
2023/03/04 07:00:30;;;;;;;22.40;7.35;;;;;;;-144.47;91.38;53018.97;5066630;28;20142;-65
2023/03/04 07:02:57;;;;;;;25.52;6.95;;;;;;;-144.47;91.08;53007.03;5068962;28;20525;-67
2023/03/04 07:05:22;;;;;;;14.55;5.55;;;;;;;-144.47;91.20;52979.22;5065067;28;20024;-66
2023/03/04 07:07:48;;;;;;;23.67;6.22;;;;;;;-144.47;91.44;53040.81;5065350;28;20032;-66
2023/03/04 07:10:13;;;;;;;15.27;6.53;;;;;;;-144.47;91.07;52993.13;5068104;28;20021;-65
2023/03/04 07:12:39;;;;;;;18.80;7.22;;;;;;;-144.47;91.43;53038.81;5060217;28;20036;-67
2023/03/04 07:15:05;;;;;;;20.83;6.13;;;;;;;-144.47;91.69;53005.06;5066165;28;20074;-67
2023/03/04 07:17:30;;;;;;;14.13;5.47;;;;;;;-144.47;91.48;53011.00;5070759;28;20502;-66
2023/03/04 07:19:56;;;;;;;14.75;6.43;;;;;;;-144.47;91.23;53022.94;5075410;28;20028;-64
2023/03/04 07:22:21;;;;;;;20.55;6.10;;;;;;;-144.47;91.39;53018.97;5066781;28;20338;-66
2023/03/04 07:24:46;;;;;;;13.52;5.68;;;;;;;-144.47;91.24;53003.06;5067246;28;20032;-67
2023/03/04 07:27:12;;;;;;;18.55;6.35;;;;;;;-144.47;91.34;53015.00;5066376;28;20418;-66
2023/03/04 07:29:37;;;;;;;23.63;6.25;;;;;;;-144.47;91.52;52999.09;5066799;28;20103;-66
2023/03/04 07:32:07;;;;;;;30.65;7.15;;;;;;;-144.47;91.86;53015.00;5067641;28;20052;-67
2023/03/04 07:34:33;;;;;;;16.63;5.65;;;;;;;-144.47;91.50;52995.13;5068145;28;20350;-65
2023/03/04 07:36:58;;;;;;;19.13;6.60;;;;;;;-144.47;91.27;53026.91;5067369;28;20017;-63
2023/03/04 07:39:23;;;;;;;25.63;6.05;;;;;;;-144.47;91.22;52991.16;5063870;28;20207;-66
2023/03/04 07:41:49;;;;;;;20.80;5.25;;;;;;;-144.47;91.06;52999.09;5064332;28;20056;-66
2023/03/04 07:44:14;;;;;;;18.13;5.32;;;;;;;-144.47;91.17;52983.22;5067397;28;20056;-64
2023/03/04 07:46:40;;;;;;;23.40;6.00;;;;;;;-144.47;90.50;52995.13;5065508;28;20133;-67
2023/03/04 07:49:05;;;;;;;15.93;4.82;;;;;;;-144.47;90.30;53016.97;5060141;28;20040;-66
2023/03/04 07:51:30;;;;;;;20.75;5.55;;;;;;;-144.47;90.17;52971.28;5061896;28;20039;-67
2023/03/04 07:53:58;;;;;;;18.30;5.97;;;;;;;-144.47;88.80;53007.03;5071181;28;20039;-67
2023/03/04 07:56:27;;;;;;;12.15;4.57;;;;;;;-144.47;88.79;53003.06;5066985;28;20031;-65
2023/03/04 07:58:52;;;;;;;25.13;5.93;;;;;;;-144.47;88.54;53005.06;5071337;28;20339;-67
2023/03/04 08:01:21;;;;;;;15.95;4.80;;;;;;;-144.47;89.11;52989.16;5078436;28;20028;-65
2023/03/04 08:03:46;;;;;;;22.83;5.35;;;;;;;-144.47;89.53;53020.94;5043446;28;20632;-66
2023/03/04 08:06:14;;;;;;;16.70;4.88;;;;;;;-144.47;89.01;52987.19;5066853;28;20025;-64
2023/03/04 08:08:41;;;;;;;19.27;5.38;;;;;;;-144.47;88.82;52971.28;5073607;28;20122;-66
2023/03/04 08:11:12;;;;;;;21.00;4.55;;;;;;;-144.47;88.81;52987.19;5071103;28;20472;-67
2023/03/04 08:13:38;;;;;;;14.80;5.15;;;;;;;-144.47;88.92;53009.03;5071161;28;20078;-67
2023/03/04 08:16:04;;;;;;;11.75;4.47;;;;;;;-144.47;89.16;52985.19;5071152;28;20701;-64
2023/03/04 08:18:30;;;;;;;20.13;4.38;;;;;;;-144.47;89.37;52971.28;5070655;28;20052;-65
2023/03/04 08:20:56;;;;;;;21.45;4.95;;;;;;;-144.47;90.00;52981.22;5065805;28;20024;-64
2023/03/04 08:23:21;;;;;;;26.20;5.30;;;;;;;-144.47;89.93;53016.97;5077029;28;20028;-66
2023/03/04 08:25:47;;;;;;;13.98;4.43;;;;;;;-144.47;89.71;52979.22;5065382;28;20029;-67
2023/03/04 08:28:13;;;;;;;14.55;4.80;;;;;;;-144.47;89.80;52975.25;5063914;28;20107;-66
2023/03/04 08:30:39;;;;;;;16.95;4.78;;;;;;;-144.47;89.83;52993.13;5066495;28;20041;-66
2023/03/04 08:33:05;;;;;;;17.25;4.82;;;;;;;-144.47;88.86;52995.13;5071325;28;20094;-65
2023/03/04 08:35:31;;;;;;;10.23;4.45;;;;;;;-144.47;87.89;52983.22;5069218;28;20049;-66
2023/03/04 08:37:56;;;;;;;13.40;4.40;;;;;;;-144.47;87.29;52969.31;5065915;28;20370;-67
2023/03/04 08:40:24;;;;;;;18.65;4.72;;;;;;;-144.47;87.27;52959.38;5069679;28;20024;-66
2023/03/04 08:42:49;;;;;;;17.35;4.80;;;;;;;-144.47;87.20;52979.22;5073795;28;20198;-66
2023/03/04 08:45:14;;;;;;;13.07;4.07;;;;;;;-144.47;86.72;52969.31;5057094;28;20017;-67
2023/03/04 08:47:40;;;;;;;13.60;4.50;;;;;;;-144.47;86.98;52967.31;5044435;28;20132;-67
2023/03/04 08:50:06;;;;;;;16.10;3.80;;;;;;;-144.47;86.37;52981.22;5069408;28;20732;-64
2023/03/04 08:52:32;;;;;;;19.98;3.97;;;;;;;-144.47;86.08;52997.09;5070339;28;20020;-66
2023/03/04 08:54:57;;;;;;;10.45;4.40;;;;;;;-144.47;85.99;52999.09;5071517;28;20028;-68
2023/03/04 08:57:23;;;;;;;14.57;4.00;;;;;;;-144.47;85.85;52963.34;5077944;28;20443;-68
2023/03/04 08:59:48;;;;;;;15.52;4.15;;;;;;;-144.47;86.20;52959.38;5069531;28;20159;-65
2023/03/04 09:02:16;;;;;;;14.10;4.05;;;;;;;-144.47;86.02;52949.44;5072406;28;20013;-67
2023/03/04 09:04:42;;;;;;;16.23;4.77;;;;;;;-144.47;85.67;52977.25;5081098;28;20023;-67
2023/03/04 09:07:08;;;;;;;19.15;3.63;;;;;;;-144.47;85.84;52959.38;5051007;28;20020;-65
2023/03/04 09:09:33;;;;;;;11.00;3.28;;;;;;;-144.47;85.53;52955.41;5075426;28;20024;-66
2023/03/04 09:11:59;;;;;;;10.48;3.30;;;;;;;-144.47;85.72;52953.41;5069383;28;20041;-66
2023/03/04 09:14:24;;;;;;;12.52;3.30;;;;;;;-144.47;86.29;52947.47;5067633;28;20127;-66
2023/03/04 09:16:53;;;;;;;14.75;2.50;;;;;;;-144.47;86.82;52955.41;5070466;28;20031;-67
2023/03/04 09:19:18;;;;;;;7.57;2.30;;;;;;;-144.47;86.57;52969.31;5069564;28;20028;-65
2023/03/04 09:21:44;;;;;;;7.88;2.13;;;;;;;-144.47;85.96;52981.22;5064730;28;20036;-67
2023/03/04 09:24:09;;;;;;;9.23;2.35;;;;;;;-144.47;86.07;52951.44;5050401;28;20040;-67
2023/03/04 09:26:35;;;;;;;7.05;2.40;;;;;;;-144.47;85.76;52967.31;5065105;28;20032;-66
2023/03/04 09:29:01;;;;;;;3.90;2.08;;;;;;;-144.47;86.32;52979.22;5061841;28;20029;-66
2023/03/04 09:31:28;;;;;;;11.13;2.65;;;;;;;-144.47;86.51;52939.50;5067020;28;20537;-66
2023/03/04 09:33:55;;;;;;;8.43;2.50;;;;;;;-144.47;86.13;52965.34;5069379;28;20055;-66
2023/03/04 09:36:21;;;;;;;6.80;2.42;;;;;;;-144.47;86.27;52961.34;5064822;28;20024;-67
2023/03/04 09:38:46;;;;;;;10.63;2.50;;;;;;;-144.47;85.63;52963.34;5062877;28;20099;-65
2023/03/04 09:41:18;;;;;;;15.45;3.05;;;;;;;-144.47;85.37;52971.28;5079582;28;20020;-66
2023/03/04 09:43:46;;;;;;;9.68;2.30;;;;;;;-144.47;85.65;52967.31;5071509;28;20024;-67
2023/03/04 09:46:17;;;;;;;12.63;2.65;;;;;;;-144.47;85.36;52967.31;5068865;28;20028;-67
2023/03/04 09:48:51;;;;;;;6.88;2.28;;;;;;;-144.47;84.96;52959.38;5071994;28;20458;-69
2023/03/04 09:51:35;;;;;;;5.32;2.17;;;;;;;-144.47;85.11;52945.47;5065058;28;20012;-71
2023/03/04 09:54:28;;;;;;;7.97;2.47;;;;;;;-144.47;84.60;52971.28;5069032;28;20044;-66
2023/03/04 09:57:05;;;;;;;9.85;2.88;;;;;;;-144.47;84.43;52957.38;5069296;28;20017;-67
2023/03/04 09:59:53;;;;;;;10.57;3.10;;;;;;;-144.47;84.21;52913.69;5066108;28;20043;-69
2023/03/04 10:02:49;;;;;;;7.00;1.97;;;;;;;-144.47;83.45;52977.25;5066781;28;20044;-68
2023/03/04 10:05:25;;;;;;;10.45;2.05;;;;;;;-144.47;83.39;52967.31;5064209;28;20020;-66
2023/03/04 10:07:58;;;;;;;7.75;2.08;;;;;;;-144.47;83.26;52955.41;5073314;28;20078;-67
2023/03/04 10:10:29;;;;;;;11.55;2.50;;;;;;;-144.47;83.17;52975.25;5062633;28;20024;-68
2023/03/04 10:12:56;;;;;;;8.35;2.30;;;;;;;-144.47;83.05;52949.44;5068335;28;20044;-68
2023/03/04 10:15:27;;;;;;;6.60;2.15;;;;;;;-144.47;82.86;52977.25;5069356;28;20676;-69
2023/03/04 10:18:03;;;;;;;8.35;1.60;;;;;;;-144.47;83.00;52957.38;5068403;28;20017;-68
2023/03/04 10:20:45;;;;;;;2.45;1.35;;;;;;;-144.47;83.02;52915.69;5058111;22;20137;-68
2023/03/04 10:23:18;;;;;;;8.82;1.80;;;;;;;-144.47;83.63;52969.31;5047892;28;20021;-70
2023/03/04 10:25:45;;;;;;;11.45;2.67;;;;;;;-144.47;84.11;52969.31;5044034;28;20016;-71
2023/03/04 10:28:22;;;;;;;10.02;2.20;;;;;;;-144.47;83.54;52965.34;5044084;28;20108;-70
2023/03/04 10:31:06;;;;;;;10.70;1.80;;;;;;;-144.47;83.33;52951.44;5030624;28;20025;-70
2023/03/04 10:33:34;;;;;;;7.85;1.75;;;;;;;-144.47;83.29;52943.47;5030358;28;20083;-71
2023/03/04 10:36:24;;;;;;;5.50;1.77;;;;;;;-144.47;83.61;52919.66;5030180;28;20026;-69
2023/03/04 10:38:59;;;;;;;8.05;1.90;;;;;;;-144.47;83.49;52941.50;5029400;28;20052;-71
2023/03/04 10:41:27;;;;;;;12.23;2.22;;;;;;;-144.47;83.77;52937.53;5030651;28;20025;-69
2023/03/04 10:44:01;;;;;;;4.47;1.70;;;;;;;-144.47;83.99;52949.44;5028950;28;20053;-72
2023/03/04 10:46:27;;;;;;;8.35;1.73;;;;;;;-144.47;84.03;52935.53;5029740;28;20033;-70
2023/03/04 10:48:53;;;;;;;8.32;1.75;;;;;;;-144.47;84.69;52927.59;5031735;28;20360;-71
2023/03/04 10:51:22;;;;;;;5.45;1.70;;;;;;;-144.47;84.61;52967.31;5012637;28;20422;-72
2023/03/04 10:53:55;;;;;;;5.82;1.83;;;;;;;-144.47;85.01;52929.59;5017278;28;20021;-70
2023/03/04 10:56:30;;;;;;;6.25;1.55;;;;;;;-144.47;84.86;52951.44;5029951;28;20115;-71
2023/03/04 10:59:30;;;;;;;5.93;1.88;;;;;;;-144.47;83.93;52937.53;5029537;28;20411;-71
2023/03/04 11:01:57;;;;;;;4.97;1.70;;;;;;;-144.47;84.08;52955.41;5024833;28;20378;-70
2023/03/04 11:04:26;;;;;;;6.13;1.83;;;;;;;-144.47;84.27;52951.44;5029191;28;20399;-70
2023/03/04 11:06:53;;;;;;;7.25;1.83;;;;;;;-144.47;84.62;52943.47;5030090;28;20037;-68
2023/03/04 11:09:30;;;;;;;6.03;1.67;;;;;;;-144.47;84.41;52947.47;5030133;28;20013;-69